Weather observations for the past three days for
Mesquite, Mesquite Metro Airport
| Date | Time (cdt) | Wind (kph) | Vis. (km) | Weather | Sky Cond. | Temperature (ºC) | Relative Humidity | Wind Chill (°C) | Heat Index (°C) | Pressure | Precipitation (cm) | ||||||
|---|---|---|---|---|---|---|---|---|---|---|---|---|---|---|---|---|---|
| Air | Dwpt | 6 hour | altimeter (cm) | sea level (mb) | 1 hr | 3 hr | 6 hr | ||||||||||
| Max. | Min. | ||||||||||||||||
| 08 | 15:50 | S 9 | 4.83 | Light Rain Fog/Mist | OVC032 | 23 | 16 | 65% | 75.79 | 0.0 | |||||||
| 08 | 14:50 | S 15 | 16.09 | Overcast | OVC034 | 26 | 16 | 54% | 27 | 75.82 | 0.0 | ||||||
| 08 | 13:51 | S 17 | 16.09 | Mostly Cloudy | BKN041 BKN090 | 25 | 16 | 57% | 26 | 75.9 | 0.0 | ||||||
| 08 | 11:50 | S 11 | 16.09 | Overcast | BKN046 OVC065 | 24 | 15 | 57% | 25 | 76.02 | 0.0 | ||||||
| 08 | 10:50 | S 11 | 16.09 | Overcast | OVC060 | 22 | 14 | 61% | 76.07 | 0.0 | |||||||
| 08 | 09:50 | SE 15 | 16.09 | Overcast | OVC070 | 21 | 13 | 60% | 76.1 | 0.0 | |||||||
| 08 | 08:50 | SE 15 | 16.09 | Fair | CLR | 19 | 14 | 73% | 76.12 | 0.0 | |||||||
| 08 | 07:50 | Calm | 16.09 | Partly Cloudy | SCT110 | 16 | 14 | 88% | 76.15 | 0.0 | |||||||
| 08 | 06:50 | Calm | 16.09 | Mostly Cloudy | BKN110 | 14 | 13 | 94% | 76.15 | 0.0 | |||||||
| 08 | 06:35 | NE 6 | 16.09 | Overcast | OVC110 | 14.8 | 13.2 | 90% | 76.15 | 0.0 | |||||||
| 08 | 06:15 | NW 6 | 16.09 | Overcast | OVC100 | 14.6 | 13.3 | 92% | 76.17 | 0.0 | |||||||
| 08 | 05:55 | Calm | 16.09 | Overcast | OVC090 | 13.9 | 12.3 | 90% | 76.12 | 0.0 | |||||||
| 08 | 05:35 | SE 6 | 16.09 | Mostly Cloudy | BKN090 | 13.6 | 11.6 | 88% | 76.07 | 0.0 | |||||||
| 08 | 05:15 | Calm | 16.09 | Partly Cloudy | SCT090 | 13.8 | 11.6 | 87% | 76.07 | 0.0 | |||||||
| 08 | 04:55 | S 6 | 16.09 | Partly Cloudy | SCT085 | 14.5 | 12.2 | 86% | 76.1 | 0.0 | |||||||
| 08 | 04:35 | Calm | 16.09 | Mostly Cloudy | BKN085 | 15 | 13 | 88% | 76.1 | 0.0 | |||||||
| 08 | 04:15 | SE 11 | 16.09 | Mostly Cloudy | BKN085 | 15 | 13 | 88% | 76.07 | 0.0 | |||||||
| 08 | 03:55 | E 7 | 16.09 | Mostly Cloudy | BKN085 BKN110 | 15.2 | 13.1 | 87% | 76.1 | 0.0 | |||||||
| 08 | 03:35 | Calm | 16.09 | Overcast | BKN085 OVC110 | 15.3 | 13.1 | 87% | 76.17 | 0.0 | |||||||
| 08 | 03:15 | Calm | 16.09 | Overcast | OVC095 | 15.5 | 13.3 | 87% | 76.2 | 0.0 | |||||||
| 08 | 02:55 | Calm | 16.09 | Overcast | OVC095 | 15.3 | 13 | 86% | 76.17 | 0.0 | |||||||
| 08 | 02:35 | Calm | 16.09 | Overcast | OVC095 | 15.3 | 13 | 86% | 76.15 | 0.0 | |||||||
| 08 | 02:15 | Calm | 16.09 | Overcast | OVC085 | 15.2 | 12.5 | 84% | 76.15 | 0.0 | |||||||
| 08 | 01:55 | Calm | 16.09 | Overcast | OVC085 | 14.9 | 12 | 83% | 76.17 | 0.0 | |||||||
| 08 | 01:35 | Calm | 16.09 | Mostly Cloudy | BKN085 | 14.5 | 11.5 | 82% | 76.2 | 0.0 | |||||||
| 08 | 01:15 | S 6 | 16.09 | Partly Cloudy | SCT085 | 14.5 | 11.2 | 81% | 76.2 | 0.0 | |||||||
| 08 | 00:55 | Calm | 16.09 | Fair | CLR | 14.5 | 11.3 | 19.6 | 14.5 | 81% | 76.2 | 0.0 | |||||
| 08 | 00:35 | Calm | 16.09 | Fair | CLR | 15 | 11.8 | 81% | 76.2 | 0.0 | |||||||
| 08 | 00:15 | S 6 | 16.09 | Fair | CLR | 15.3 | 11.7 | 79% | 76.2 | 0.0 | |||||||
| 07 | 23:55 | Calm | 16.09 | Fair | CLR | 15.5 | 11.5 | 77% | 76.2 | 0.0 | |||||||
| 07 | 23:35 | Calm | 16.09 | Fair | CLR | 15.5 | 11.4 | 77% | 76.2 | 0.0 | |||||||
| 07 | 23:15 | Calm | 16.09 | Fair | CLR | 15.5 | 11.7 | 78% | 76.2 | 0.0 | |||||||
| 07 | 22:55 | Calm | 16.09 | Fair | CLR | 15.8 | 12.1 | 79% | 76.17 | 0.0 | |||||||
| 07 | 22:35 | E 6 | 16.09 | Fair | CLR | 16.1 | 12 | 77% | 76.17 | 0.0 | |||||||
| 07 | 22:15 | Calm | 16.09 | Fair | CLR | 16 | 11.7 | 76% | 76.17 | 0.0 | |||||||
| 07 | 21:55 | Calm | 16.09 | Fair | CLR | 16 | 11 | 72% | 76.17 | 0.0 | |||||||
| 07 | 21:35 | Calm | 16.09 | Fair | CLR | 16.1 | 10.9 | 71% | 76.17 | 0.0 | |||||||
| 07 | 21:15 | Calm | 16.09 | Fair | CLR | 16.5 | 10.5 | 68% | 76.17 | 0.0 | |||||||
| 07 | 20:55 | Calm | 16.09 | Fair | CLR | 16.8 | 11.2 | 70% | 76.12 | 0.0 | |||||||
| 07 | 19:50 | E 7 | 16.09 | Fair | CLR | 19 | 12 | 64% | 76.15 | 0.0 | |||||||
| 07 | 18:53 | Calm | 16.09 | Fair | CLR | 19 | 12 | 64% | 76.15 | 0.0 | |||||||
| 07 | 17:52 | S 11 | 16.09 | Fair | CLR | 21 | 12 | 57% | 76.17 | 0.0 | |||||||
| 07 | 16:50 | S 11 | 16.09 | Fair | CLR | 21 | 12 | 57% | 76.2 | 0.0 | |||||||
| 07 | 15:53 | E 7 | 16.09 | Fair | CLR | 23 | 11 | 47% | 76.23 | 0.0 | |||||||
| 07 | 14:56 | Calm | 16.09 | Fair | CLR | 23 | 11 | 47% | 76.28 | 0.0 | |||||||
| 07 | 14:50 | Calm | 16.09 | Fair | CLR | 23 | 11 | 47% | 76.28 | 0.0 | |||||||
| 07 | 13:52 | NW 11 | 16.09 | Fair | CLR | 21 | 11 | 53% | 76.33 | 0.0 | |||||||
| 07 | 12:50 | N 15 | 16.09 | Fair | CLR | 21 | 10 | 50% | 76.38 | 0.0 | |||||||
| 07 | 11:50 | N 11 | 16.09 | Fair | CLR | 20 | 10 | 53% | 76.45 | 0.0 | |||||||
| 07 | 10:50 | N 15 | 16.09 | Fair | CLR | 18 | 11 | 64% | 76.48 | 0.0 | |||||||
| 07 | 08:50 | NW 7 | 16.09 | Fair | CLR | 16 | 11 | 72% | 76.56 | 0.0 | |||||||
| 07 | 07:50 | Calm | 16.09 | Fair | CLR | 12 | 11 | 94% | 76.56 | 0.0 | |||||||
| 07 | 06:50 | NW 7 | 16.09 | Fair | CLR | 11 | 9 | 88% | 76.5 | 0.0 | |||||||
| 07 | 06:35 | N 6 | 16.09 | Fair | CLR | 10.6 | 9.4 | 92% | 76.48 | 0.0 | |||||||
| 07 | 06:15 | Calm | 16.09 | Fair | CLR | 10.9 | 9.4 | 91% | 76.48 | 0.0 | |||||||
| 07 | 05:55 | Calm | 16.09 | Fair | CLR | 10.8 | 9.6 | 92% | 76.45 | 0.0 | |||||||
| 07 | 05:35 | Calm | 16.09 | Fair | CLR | 10.9 | 9.5 | 91% | 76.38 | 0.0 | |||||||
| 07 | 05:15 | N 7 | 16.09 | Fair | CLR | 11 | 9.5 | 91% | 76.35 | 0.0 | |||||||
| 07 | 04:55 | Calm | 16.09 | Fair | CLR | 11.1 | 9.6 | 91% | 76.38 | 0.0 | |||||||
| 07 | 04:35 | Calm | 16.09 | Fair | CLR | 11.3 | 9.8 | 91% | 76.38 | 0.0 | |||||||
| 07 | 04:15 | N 6 | 16.09 | Fair | CLR | 11.6 | 10.1 | 91% | 76.35 | 0.0 | |||||||
| 07 | 03:55 | N 7 | 16.09 | Partly Cloudy | SCT035 | 11.8 | 10.3 | 91% | 76.35 | 0.0 | |||||||
| 07 | 03:35 | N 7 | 16.09 | Fair | CLR | 12 | 10.6 | 91% | 76.33 | 0.0 | |||||||
| 07 | 03:15 | N 9 | 16.09 | Fair | CLR | 12 | 10.8 | 92% | 76.33 | 0.0 | |||||||
| 07 | 02:55 | N 6 | 16.09 | Fair | CLR | 12 | 10.8 | 92% | 76.3 | 0.0 | |||||||
| 07 | 02:35 | N 7 | 16.09 | Fair | CLR | 12.1 | 10.8 | 92% | 76.3 | 0.0 | |||||||
| 07 | 02:15 | N 7 | 16.09 | Fair | CLR | 12.5 | 11 | 91% | 76.3 | 0.0 | |||||||
| 07 | 01:55 | NE 9 | 16.09 | Fair | CLR | 12.5 | 11 | 91% | 76.3 | 0.0 | |||||||
| 07 | 01:35 | NE 7 | 16.09 | Fair | CLR | 12.7 | 10.7 | 88% | 76.3 | 0.0 | |||||||
| 07 | 01:15 | E 9 | 16.09 | Fair | CLR | 12.9 | 10.6 | 86% | 76.3 | 0.0 | |||||||
| 07 | 00:35 | NE 6 | 16.09 | Overcast | OVC030 | 13.6 | 10.5 | 82% | 76.3 | 0.0 | |||||||
| 07 | 00:15 | NE 7 | 16.09 | Overcast | OVC030 | 14 | 10.3 | 79% | 76.3 | 0.0 | |||||||
| 06 | 23:55 | NE 7 | 16.09 | Overcast | OVC030 | 14.2 | 10.3 | 78% | 76.3 | 0.0 | |||||||
| 06 | 23:35 | NE 11 | 16.09 | Overcast | OVC030 | 14.5 | 10.5 | 77% | 76.33 | 0.0 | |||||||
| 06 | 23:15 | N 15 G 28 | 16.09 | Overcast | OVC028 | 14.6 | 10.5 | 77% | 76.33 | 0.0 | |||||||
| 06 | 22:55 | N 17 G 26 | 16.09 | Overcast | OVC028 | 14.6 | 10.6 | 77% | 76.33 | 0.0 | |||||||
| 06 | 22:15 | N 15 | 16.09 | Overcast | OVC028 | 14.6 | 11.2 | 80% | 76.3 | 0.0 | |||||||
| 06 | 21:55 | N 11 | 16.09 | Overcast | SCT015 OVC025 | 14.5 | 11.5 | 82% | 76.28 | 0.0 | |||||||
| 06 | 21:35 | N 19 | 16.09 | Overcast | OVC015 | 14.5 | 11.7 | 83% | 76.25 | 0.0 | |||||||
| 06 | 21:15 | N 13 | 16.09 | Overcast | BKN017 OVC022 | 14.6 | 11.7 | 83% | 76.23 | 0.0 | |||||||
| 06 | 20:55 | N 11 | 16.09 | Overcast | SCT016 OVC022 | 14.5 | 11.8 | 84% | 76.2 | 0.0 | |||||||
| 06 | 19:50 | N 11 | 16.09 | Overcast | OVC015 | 14 | 12 | 88% | 76.12 | 0.0 | |||||||
| 06 | 18:52 | N 11 | 16.09 | Overcast | OVC015 | 14 | 12 | 88% | 76.07 | 0.0 | |||||||
| 06 | 17:50 | N 13 G 28 | 16.09 | Overcast | OVC014 | 14 | 12 | 88% | 76.07 | 0.0 | |||||||
| 06 | 15:50 | N 11 | 11.27 | Overcast | OVC014 | 14 | 12 | 88% | 76.07 | 0.0 | |||||||
| 06 | 13:50 | N 13 | 16.09 | Overcast | OVC013 | 14 | 11 | 82% | 76.05 | 0.0 | |||||||
| 06 | 12:50 | N 24 G 41 | 16.09 | Overcast | OVC013 | 14 | 11 | 82% | 76 | 0.0 | |||||||
| 06 | 11:50 | N 20 G 30 | 16.09 | Overcast | BKN013 OVC026 | 14 | 11 | 82% | 76 | 0.0 | |||||||
| 06 | 10:50 | N 11 | 16.09 | Overcast | OVC015 | 13 | 10 | 82% | 76.1 | 0.0 | |||||||
| 06 | 09:50 | N 19 G 26 | 11.27 | Overcast | OVC013 | 13 | 9 | 77% | 76.12 | 0.0 | |||||||
| 06 | 08:50 | N 19 G 26 | 11.27 | Overcast | OVC015 | 13 | 9 | 77% | 76.05 | 0.0 | |||||||
| 06 | 07:50 | NW 20 G 28 | 12.87 | Overcast | OVC019 | 13 | 9 | 77% | 75.92 | 0.0 | |||||||
| 06 | 06:50 | NW 20 G 28 | 12.87 | Overcast | OVC019 | 13 | 9 | 77% | 75.92 | 0.0 | |||||||
| 06 | 06:35 | N 22 | 16.09 | Overcast | OVC019 | 13.6 | 9.1 | 74% | 75.9 | 0.0 | |||||||
| 06 | 06:15 | N 17 | 16.09 | Overcast | OVC019 | 14 | 9.3 | 74% | 75.87 | 0.0 | |||||||
| 06 | 05:55 | N 17 G 26 | 16.09 | Overcast | OVC019 | 14.3 | 9.1 | 71% | 75.84 | 0.0 | |||||||
| 06 | 05:35 | N 15 | 16.09 | Overcast | OVC019 | 14.5 | 9.3 | 71% | 75.84 | 0.0 | |||||||
| 06 | 05:15 | N 15 | 16.09 | Overcast | OVC019 | 14.6 | 9.5 | 72% | 75.79 | 0.0 | |||||||
| 06 | 04:55 | N 17 | 16.09 | Overcast | OVC019 | 14.7 | 9.5 | 71% | 75.79 | 0.0 | |||||||
| 06 | 04:35 | N 19 | 16.09 | Overcast | OVC019 | 15 | 9.8 | 71% | 75.79 | 0.0 | |||||||
| 06 | 04:15 | N 11 | 16.09 | Overcast | OVC019 | 15.1 | 10.5 | 74% | 75.77 | 0.0 | |||||||
| 06 | 03:55 | N 13 | 16.09 | Overcast | OVC019 | 15.1 | 10.5 | 74% | 75.77 | 0.0 | |||||||
| 06 | 03:35 | N 9 | 16.09 | Overcast | OVC019 | 15.2 | 10.3 | 73% | 75.74 | 0.0 | |||||||
| 06 | 03:15 | N 15 | 16.09 | Overcast | OVC019 | 15.5 | 10.6 | 73% | 75.72 | 0.0 | |||||||
| 06 | 02:55 | N 15 | 16.09 | Overcast | OVC021 | 15.9 | 11.3 | 74% | 75.74 | 0.0 | |||||||
| 06 | 02:35 | N 19 | 16.09 | Overcast | OVC023 | 16.2 | 11.5 | 74% | 75.74 | 0.0 | |||||||
| 06 | 02:15 | N 19 G 28 | 16.09 | Overcast | OVC023 | 16.6 | 12 | 74% | 75.74 | 0.0 | |||||||
| 06 | 01:55 | N 15 | 16.09 | Overcast | OVC025 | 17 | 12.5 | 75% | 75.74 | 0.0 | |||||||
| 06 | 01:35 | N 15 | 16.09 | Overcast | OVC027 | 17.5 | 13 | 75% | 75.72 | 0.0 | |||||||
| 06 | 01:15 | N 17 | 16.09 | Overcast | OVC027 | 17.7 | 13 | 74% | 75.72 | 0.0 | |||||||
| 06 | 00:55 | N 15 | 16.09 | Overcast | OVC029 | 18.1 | 13.3 | 27.4 | 18.1 | 74% | 75.72 | 0.0 | |||||
| 06 | 00:35 | N 17 | 16.09 | Overcast | OVC029 | 18.6 | 13.7 | 73% | 75.72 | 0.0 | |||||||
| 06 | 00:15 | N 20 | 16.09 | Overcast | OVC029 | 19.4 | 14.4 | 73% | 75.72 | 0.0 | |||||||
| 05 | 23:55 | N 19 | 16.09 | Overcast | OVC031 | 20.2 | 15 | 72% | 75.69 | 0.0 | |||||||
| 05 | 23:35 | N 17 | 16.09 | Overcast | OVC031 | 20.7 | 15.2 | 71% | 75.67 | 0.0 | |||||||
| 05 | 23:15 | N 17 | 16.09 | Overcast | OVC031 | 21.1 | 15.5 | 71% | 75.64 | 0.0 | |||||||
| 05 | 22:55 | N 22 | 16.09 | Overcast | OVC031 | 21.5 | 15.7 | 70% | 75.64 | 0.0 | |||||||
| 05 | 22:35 | N 20 G 30 | 16.09 | Overcast | OVC029 | 22.6 | 16.6 | 69% | 75.62 | 0.0 | |||||||
| 05 | 22:15 | N 20 | 16.09 | Overcast | OVC029 | 23.2 | 16.5 | 66% | 75.62 | 0.0 | |||||||
| 05 | 21:55 | N 15 | 16.09 | Overcast | OVC029 | 23.3 | 16.7 | 67% | 75.54 | 0.0 | |||||||
| 05 | 21:35 | N 7 | 16.09 | Overcast | OVC029 | 23.8 | 16.9 | 65% | 75.49 | 0.0 | |||||||
| 05 | 21:15 | Calm | 16.09 | Overcast | BKN031 OVC037 | 26 | 20.8 | 73% | 27 | 75.46 | 0.0 | ||||||
| 05 | 20:55 | Calm | 16.09 | Overcast | OVC031 | 25.8 | 21 | 75% | 27 | 75.46 | 0.0 | ||||||
| 05 | 19:50 | S 9 | 16.09 | Mostly Cloudy | SCT050 BKN070 | 27 | 21 | 70% | 29 | 75.41 | 0.0 | ||||||
| 05 | 18:50 | S 20 | 16.09 | Partly Cloudy | SCT033 | 28 | 21 | 66% | 30 | 75.34 | 0.0 | ||||||
| 05 | 17:50 | SE 24 | 16.09 | Partly Cloudy | SCT033 | 31 | 21 | 55% | 34 | 75.34 | 0.0 | ||||||
| 05 | 16:50 | S 26 | 16.09 | Partly Cloudy | SCT033 | 31 | 22 | 59% | 35 | 75.31 | 0.0 | ||||||
| Date | Time (cdt) | Wind (kph) | Vis. (km) | Weather | Sky Cond. | Air | Dwpt | Max. | Min. | Relative Humidity | Wind Chill (°C) | Heat Index (°C) | altimeter (cm) | sea level (mb) | 1 hr | 3 hr | 6 hr |
| 6 hour | |||||||||||||||||
| Temperature (ºC) | Pressure | Precipitation (cm) | |||||||||||||||